Christos Xiv — SVA2260 — position and weather

sailwx.info

Track history (hours):
 
Tides and Currents Weather Stations Pressure Air Temp Water Temp Dewpoint Dewpoint Depression Visibility Wind Speed Wind Dir Waves Ship Positions

Christos Xiv

Last reported at 2017-Sep-19 18:49 UTC. Time now 2017-Sep-19 19:05 UTC.
Position N 37°58' E 023°34'.

Length 27 m; draft 3.7 m.

Type: Tug. MMSI: 240873000.

Date/timePositionNaut miles runAvg speedWind from/ knotsBaromVisibWave heightAir tempDewpointWater temp
2017-Sep-19 18:49N 37°58' E 023°34'0 0.0
2017-Sep-19 18:31N 37°58' E 023°34'0 0.0
2017-Sep-19 18:01N 37°58' E 023°34'0 0.2
2017-Sep-19 17:30N 37°58' E 023°34'4 7.7
2017-Sep-19 17:01N 38°01' E 023°32'2 3.1
2017-Sep-19 16:31N 38°02' E 023°30'0 0.9
2017-Sep-19 16:01N 38°02' E 023°31'3 5.5
2017-Sep-19 15:30N 38°02' E 023°34'0 0.0
2017-Sep-19 15:00N 38°02' E 023°34'0 0.0
2017-Sep-19 14:30N 38°02' E 023°34'0 0.1
2017-Sep-19 14:00N 38°02' E 023°34'0 0.0
2017-Sep-19 13:31N 38°02' E 023°34'0 0.0
2017-Sep-19 13:00N 38°02' E 023°34'0 0.2
2017-Sep-19 12:30N 38°02' E 023°34'0 0.1
2017-Sep-19 12:00N 38°02' E 023°34'1 2.6
2017-Sep-19 11:31N 38°02' E 023°36'0 0.5
2017-Sep-19 11:01N 38°01' E 023°36'0 0.3
2017-Sep-19 10:30N 38°02' E 023°35'0 0.4
2017-Sep-19 10:00N 38°01' E 023°36'1 1.1
2017-Sep-19 09:31N 38°01' E 023°35'1 1.9
2017-Sep-19 09:00N 38°02' E 023°34'3 6.0
2017-Sep-19 08:30N 38°02' E 023°30'0 0.2
2017-Sep-19 08:01N 38°02' E 023°30'0 0.0
2017-Sep-19 07:30N 38°02' E 023°30'0 0.0
2017-Sep-19 07:00N 38°02' E 023°30'0 0.0
2017-Sep-19 06:30N 38°02' E 023°30'0 0.0
2017-Sep-19 06:00N 38°02' E 023°30'0 0.0
2017-Sep-18 09:10N 38°02' E 023°30'0 0.5
2017-Sep-18 09:01N 38°02' E 023°30'0 0.2
2017-Sep-18 08:31N 38°02' E 023°30'0 0.0
2017-Sep-18 08:01N 38°02' E 023°30'0 0.0
2017-Sep-18 07:31N 38°02' E 023°30'0 0.0
2017-Sep-18 07:00N 38°02' E 023°30'0 0.0
2017-Sep-18 06:31N 38°02' E 023°30'0 0.0
2017-Sep-18 06:00N 38°02' E 023°30'0 0.0
2017-Sep-18 05:31N 38°02' E 023°30'0 0.0
2017-Sep-18 05:00N 38°02' E 023°30'0 0.0
2017-Sep-18 04:30N 38°02' E 023°30'0 0.0
2017-Sep-18 04:01N 38°02' E 023°30'0 0.0
2017-Sep-18 03:30N 38°02' E 023°30'0 0.0
2017-Sep-18 03:01N 38°02' E 023°30'0 0.0
2017-Sep-18 02:31N 38°02' E 023°30'0 0.0
2017-Sep-18 02:01N 38°02' E 023°30'0 0.0
2017-Sep-18 01:31N 38°02' E 023°30'0 0.0
2017-Sep-18 01:01N 38°02' E 023°30'0 0.0
2017-Sep-18 00:31N 38°02' E 023°30'0 0.0
2017-Sep-18 00:00N 38°02' E 023°30'0 0.0
2017-Sep-17 23:30N 38°02' E 023°30'0 0.0
2017-Sep-17 23:00N 38°02' E 023°30'0 0.1
2017-Sep-17 22:30N 38°02' E 023°30'0 0.1
2017-Sep-17 22:00N 38°02' E 023°30'0 0.0
2017-Sep-17 21:30N 38°02' E 023°30'0 0.0
2017-Sep-17 21:01N 38°02' E 023°30'0 0.0
2017-Sep-17 20:31N 38°02' E 023°30'1 2.2
2017-Sep-17 20:00N 38°01' E 023°31'5 9.3
2017-Sep-17 19:30N 37°57' E 023°34'1 2.6
2017-Sep-17 19:00N 37°57' E 023°36'1 2.4
2017-Sep-17 18:30N 37°57' E 023°34'1 1.6
2017-Sep-17 18:00N 37°58' E 023°33'0 0.0
2017-Sep-17 17:30N 37°58' E 023°33'0 0.0
2017-Sep-17 17:00N 37°58' E 023°33'1 2.6
2017-Sep-17 16:30N 37°59' E 023°33'3 6.3
2017-Sep-17 16:00N 38°01' E 023°36'0 0.0
2017-Sep-17 15:30N 38°01' E 023°36'0 0.0
2017-Sep-17 15:00N 38°01' E 023°36'0 0.0
2017-Sep-17 14:31N 38°01' E 023°36'0 0.3
2017-Sep-17 14:01N 38°02' E 023°35'2 4.8
2017-Sep-17 13:31N 38°02' E 023°32'1 2.2
2017-Sep-17 13:00N 38°02' E 023°34'1 2.8
2017-Sep-17 12:30N 38°01' E 023°35'0 0.0
2017-Sep-17 12:00N 38°01' E 023°35'0 0.0
2017-Sep-17 11:30N 38°01' E 023°35'2 4.9
2017-Sep-17 11:00N 38°02' E 023°32'2 3.4
2017-Sep-17 10:30N 38°02' E 023°30'0 0.0
2017-Sep-17 10:00N 38°02' E 023°30'0 0.0
2017-Sep-17 09:31N 38°02' E 023°30'0 0.0
2017-Sep-17 09:01N 38°02' E 023°30'0 0.0
2017-Sep-17 08:31N 38°02' E 023°30'0 0.0
2017-Sep-17 08:00N 38°02' E 023°30'0 0.0
2017-Sep-17 07:31N 38°02' E 023°30'0 0.0
2017-Sep-17 07:00N 38°02' E 023°30'0 0.0
2017-Sep-17 06:30N 38°02' E 023°30'0 0.0
2017-Sep-17 06:01N 38°02' E 023°30'0 0.0
2017-Sep-17 05:30N 38°02' E 023°30'0 0.0
2017-Sep-17 05:01N 38°02' E 023°30'0 0.0
2017-Sep-17 04:31N 38°02' E 023°30'0 0.0
2017-Sep-16 12:10N 38°02' E 023°30'0 0.1
2017-Sep-16 12:01N 38°02' E 023°30'2 4.0
2017-Sep-16 11:31N 38°01' E 023°32'2 5.0
2017-Sep-16 11:00N 38°01' E 023°36'0 0.1
2017-Sep-16 10:30N 38°02' E 023°36'1 2.7
2017-Sep-16 10:01N 38°01' E 023°34'2 4.1
2017-Sep-16 09:30N 37°59' E 023°33'2 3.4
2017-Sep-16 09:00N 37°57' E 023°33'1 1.1
2017-Sep-16 08:31N 37°58' E 023°33'0 0.0
2017-Sep-16 08:00N 37°58' E 023°33'0 0.0
2017-Sep-16 07:30N 37°58' E 023°33'0 0.0
2017-Sep-16 07:00N 37°58' E 023°33'1 1.7
2017-Sep-16 06:31N 37°57' E 023°34'4 8.9
2017-Sep-16 06:00N 37°53' E 023°35'510.0
2017-Sep-16 05:30N 37°48' E 023°36'510.0
2017-Sep-16 05:00N 37°43' E 023°37'510.1
2017-Sep-16 04:30N 37°38' E 023°38'510.2
2017-Sep-16 03:59N 37°33' E 023°39'2610.3
2017-Sep-16 01:24N 37°06' E 023°44'510.5
2017-Sep-16 00:57N 37°02' E 023°45'1710.2
2017-Sep-15 23:16N 36°45' E 023°49'29 1.0
2017-Sep-14 17:06N 37°14' E 023°47'1 9.2
2017-Sep-14 17:00N 37°15' E 023°46'5 9.5
2017-Sep-14 16:30N 37°20' E 023°45'9 9.8
2017-Sep-14 15:33N 37°29' E 023°41'1 9.9
2017-Sep-14 15:29N 37°29' E 023°41'510.0
2017-Sep-14 15:00N 37°34' E 023°40'5 9.9
2017-Sep-14 14:30N 37°39' E 023°39'510.2
2017-Sep-14 14:00N 37°44' E 023°37'510.4
2017-Sep-14 13:30N 37°49' E 023°36'510.3
2017-Sep-14 13:00N 37°54' E 023°35'4 7.9
2017-Sep-14 12:30N 37°58' E 023°33'0 0.0
2017-Sep-14 12:00N 37°58' E 023°33'0 0.0
2017-Sep-14 11:30N 37°58' E 023°33'2 1.1
2017-Sep-14 09:28N 38°00' E 023°33'3 6.4
2017-Sep-14 09:00N 38°02' E 023°30'0 0.0
2017-Sep-14 08:30N 38°02' E 023°30'0 0.0
2017-Sep-14 08:00N 38°02' E 023°30'0 0.6
2017-Sep-14 07:30N 38°02' E 023°31'0 0.6
2017-Sep-14 07:00N 38°02' E 023°30'0 0.0
2017-Sep-14 06:30N 38°02' E 023°30'0 0.0
2017-Sep-14 06:00N 38°02' E 023°30'0 0.0
2017-Sep-14 05:31N 38°02' E 023°30'0 0.6
2017-Sep-14 05:01N 38°02' E 023°30'1 1.4
2017-Sep-14 04:30N 38°02' E 023°31'1 1.8
2017-Sep-14 04:00N 38°02' E 023°30'0 0.0
2017-Sep-14 03:30N 38°02' E 023°30'0 0.0
2017-Sep-14 03:00N 38°02' E 023°30'0 0.0
2017-Sep-14 02:30N 38°02' E 023°30'0 0.0
2017-Sep-14 02:00N 38°02' E 023°30'0 0.0
2017-Sep-14 01:30N 38°02' E 023°30'0 0.0
2017-Sep-14 01:00N 38°02' E 023°30'0 0.0
2017-Sep-14 00:30N 38°02' E 023°30'0 0.0
2017-Sep-14 00:00N 38°02' E 023°30'0 0.0
2017-Sep-13 23:30N 38°02' E 023°30'0 0.0
2017-Sep-13 23:00N 38°02' E 023°30'0 0.0
2017-Sep-13 22:30N 38°02' E 023°30'0 0.0
2017-Sep-13 22:00N 38°02' E 023°30'0 0.0
2017-Sep-13 21:30N 38°02' E 023°30'0 0.0
2017-Sep-13 21:00N 38°02' E 023°30'0 0.0
2017-Sep-13 20:30N 38°02' E 023°30'0 0.0
2017-Sep-13 20:00N 38°02' E 023°30'0 0.0
2017-Sep-13 19:30N 38°02' E 023°30'0 0.0
2017-Sep-13 19:00N 38°02' E 023°30'0 0.0
2017-Sep-13 18:31N 38°02' E 023°30'0 0.7
2017-Sep-13 18:01N 38°02' E 023°30'0 0.5
2017-Sep-13 17:30N 38°02' E 023°31'0 0.0
2017-Sep-13 17:00N 38°02' E 023°31'0 0.0
2017-Sep-13 16:30N 38°02' E 023°31'0 0.2
2017-Sep-13 16:00N 38°02' E 023°30'0 0.3
2017-Sep-13 15:31N 38°02' E 023°30'0 0.3
2017-Sep-13 14:59N 38°02' E 023°30'0 0.0
2017-Sep-13 14:30N 38°02' E 023°30'0 0.0
2017-Sep-13 14:00N 38°02' E 023°30'0 0.0
2017-Sep-13 13:30N 38°02' E 023°30'0 0.0
2017-Sep-13 13:00N 38°02' E 023°30'0 0.4
2017-Sep-13 12:30N 38°02' E 023°31'0 0.7
2017-Sep-13 12:00N 38°02' E 023°30'0 0.4
2017-Sep-13 11:31N 38°02' E 023°30'0 0.7
2017-Sep-13 11:00N 38°02' E 023°30'0 0.0
2017-Sep-13 10:30N 38°02' E 023°30'0 0.0
2017-Sep-13 10:00N 38°02' E 023°30'0 0.0
2017-Sep-13 09:30N 38°02' E 023°30'0 0.5
2017-Sep-13 09:00N 38°02' E 023°31'0 0.2
2017-Sep-13 08:31N 38°02' E 023°31'4 7.6
2017-Sep-13 08:00N 38°02' E 023°35'4 7.2
2017-Sep-13 07:30N 38°02' E 023°31'1 1.2
2017-Sep-13 07:00N 38°02' E 023°30'0 0.0
2017-Sep-13 05:16N 38°02' E 023°30'0 0.0
2017-Sep-13 05:01N 38°02' E 023°30'0 0.0
2017-Sep-13 04:31N 38°02' E 023°30'0 0.0
2017-Sep-13 04:00N 38°02' E 023°30'0 0.0
2017-Sep-13 03:30N 38°02' E 023°30'0 0.0
2017-Sep-13 03:00N 38°02' E 023°30'0 0.0
2017-Sep-13 02:30N 38°02' E 023°30'0 0.4
2017-Sep-13 02:00N 38°02' E 023°30'0 0.3
2017-Sep-13 01:30N 38°02' E 023°31'0 0.6
2017-Sep-13 01:00N 38°02' E 023°30'0 0.0
2017-Sep-13 00:31N 38°02' E 023°30'0 0.0
2017-Sep-13 00:01N 38°02' E 023°30'0 0.0
2017-Sep-12 23:31N 38°02' E 023°30'0 0.0
2017-Sep-12 23:00N 38°02' E 023°30'0 0.0
2017-Sep-12 22:30N 38°02' E 023°30'0 0.0
2017-Sep-12 22:01N 38°02' E 023°30'0 0.0
2017-Sep-12 21:31N 38°02' E 023°30'0 0.0
2017-Sep-12 21:00N 38°02' E 023°30'0 0.0
2017-Sep-12 20:31N 38°02' E 023°30'0 0.0
2017-Sep-12 20:00N 38°02' E 023°30'0 0.0
2017-Sep-12 19:30N 38°02' E 023°30'0 0.9
2017-Sep-12 19:00N 38°02' E 023°31'0 0.9
2017-Sep-12 18:31N 38°02' E 023°30'0 0.0
2017-Sep-12 18:00N 38°02' E 023°30'0 0.0
2017-Sep-12 17:31N 38°02' E 023°30'0 0.0
2017-Sep-12 17:00N 38°02' E 023°30'0 0.0
2017-Sep-12 16:30N 38°02' E 023°30'0 0.0
2017-Sep-12 16:00N 38°02' E 023°30'0 0.0
2017-Sep-12 12:44N 38°02' E 023°30'0 0.0
2017-Sep-12 12:30N 38°02' E 023°30'0 0.0
2017-Sep-12 12:00N 38°02' E 023°30'0 0.0
2017-Sep-12 11:30N 38°02' E 023°30'0 0.0
2017-Sep-12 11:00N 38°02' E 023°30'0 0.9
2017-Sep-12 10:31N 38°02' E 023°31'0 0.3
2017-Sep-12 10:00N 38°02' E 023°31'0 0.7
2017-Sep-12 09:31N 38°02' E 023°30'0 0.0
2017-Sep-12 09:00N 38°02' E 023°30'0 0.5
2017-Sep-12 08:31N 38°02' E 023°31'0 0.1
2017-Sep-12 08:00N 38°02' E 023°31'0 0.0
2017-Sep-12 07:30N 38°02' E 023°31'0 0.0
2017-Sep-12 07:00N 38°02' E 023°31'0 0.0
2017-Sep-12 06:30N 38°02' E 023°31'0 0.4
2017-Sep-12 06:00N 38°02' E 023°30'0 0.0
2017-Sep-12 05:31N 38°02' E 023°30'0 0.0
2017-Sep-12 05:00N 38°02' E 023°30'0 0.0
2017-Sep-11 18:33N 38°02' E 023°30'0 0.0
2017-Sep-11 18:30N 38°02' E 023°30'0 0.6
2017-Sep-11 18:00N 38°02' E 023°30'1 2.4
2017-Sep-11 17:31N 38°01' E 023°31'2 3.0
2017-Sep-11 17:00N 38°02' E 023°30'0 0.0
2017-Sep-11 16:30N 38°02' E 023°30'0 0.0
2017-Sep-11 16:00N 38°02' E 023°30'0 0.5
2017-Sep-11 15:30N 38°02' E 023°30'2 3.2
2017-Sep-11 15:01N 38°02' E 023°32'2 3.4
2017-Sep-11 14:30N 38°02' E 023°30'0 0.5
2017-Sep-11 14:00N 38°02' E 023°31'0 0.5
2017-Sep-11 13:30N 38°02' E 023°30'0 0.0
2017-Sep-11 13:01N 38°02' E 023°30'0 0.0
2017-Sep-11 12:31N 38°02' E 023°30'0 0.0
2017-Sep-11 12:01N 38°02' E 023°30'0 0.0
2017-Sep-11 11:30N 38°02' E 023°30'0 0.0
2017-Sep-11 11:00N 38°02' E 023°30'0 0.0
2017-Sep-11 10:31N 38°02' E 023°30'0 0.0
2017-Sep-11 10:00N 38°02' E 023°30'0 0.0
2017-Sep-11 09:29N 38°02' E 023°30'0 0.0
2017-Sep-11 09:01N 38°02' E 023°30'0 0.3
2017-Sep-11 08:30N 38°02' E 023°30'0 0.6
2017-Sep-11 08:01N 38°02' E 023°30'0 0.8
2017-Sep-11 07:30N 38°02' E 023°30'0 0.1
2017-Sep-11 07:01N 38°02' E 023°30'0 0.0
2017-Sep-11 06:30N 38°02' E 023°30'0 0.0
2017-Sep-11 06:00N 38°02' E 023°30'0 0.0
2017-Sep-11 05:31N 38°02' E 023°30'0 0.0
2017-Sep-11 05:01N 38°02' E 023°30'0 0.0
2017-Sep-11 04:30N 38°02' E 023°30'0 0.0
2017-Sep-11 04:00N 38°02' E 023°30'0 0.0
2017-Sep-11 03:31N 38°02' E 023°30'0 0.0
2017-Sep-11 03:01N 38°02' E 023°30'0 0.0
2017-Sep-11 02:30N 38°02' E 023°30'0 0.0
2017-Sep-11 02:00N 38°02' E 023°30'0 0.0
2017-Sep-11 01:31N 38°02' E 023°30'0 0.0
2017-Sep-11 01:00N 38°02' E 023°30'0 0.0
2017-Sep-11 00:30N 38°02' E 023°30'0 0.0
2017-Sep-11 00:01N 38°02' E 023°30'0 0.0
2017-Sep-10 23:30N 38°02' E 023°30'0 0.0
2017-Sep-10 23:01N 38°02' E 023°30'0 0.0
2017-Sep-10 22:30N 38°02' E 023°30'0 0.0
2017-Sep-10 22:01N 38°02' E 023°30'0 0.0
2017-Sep-10 21:30N 38°02' E 023°30'0 0.0
2017-Sep-10 21:00N 38°02' E 023°30'0 0.0
2017-Sep-10 20:30N 38°02' E 023°30'0 0.3
2017-Sep-10 20:00N 38°02' E 023°30'0 0.3
2017-Sep-10 19:30N 38°02' E 023°30'0 0.0
2017-Sep-10 19:00N 38°02' E 023°30'3 5.2
2017-Sep-10 18:30N 38°00' E 023°32'4 8.7
2017-Sep-10 18:01N 37°57' E 023°36'2 3.7
2017-Sep-10 17:30N 37°56' E 023°38'1 2.8
2017-Sep-10 17:00N 37°57' E 023°36'4 7.7
2017-Sep-10 16:30N 37°60' E 023°33'3 5.4
2017-Sep-10 16:01N 38°01' E 023°36'1 2.3
2017-Sep-10 15:30N 38°01' E 023°35'3 6.7
2017-Sep-10 15:00N 37°57' E 023°33'0 0.2
2017-Sep-10 14:00N 37°57' E 023°33'3 6.4
2017-Sep-10 13:31N 38°00' E 023°32'2 4.5
2017-Sep-10 13:01N 38°02' E 023°30'2 3.1
2017-Sep-10 12:31N 38°02' E 023°32'0 0.4
2017-Sep-10 12:01N 38°02' E 023°32'0 0.0
2017-Sep-10 11:30N 38°02' E 023°32'0 0.0
2017-Sep-10 11:01N 38°02' E 023°32'0 0.0
2017-Sep-10 10:30N 38°02' E 023°32'0 0.2
2017-Sep-10 10:00N 38°02' E 023°32'0 0.0
2017-Sep-10 09:30N 38°02' E 023°32'0 0.0
2017-Sep-10 09:00N 38°02' E 023°32'1 3.0
2017-Sep-10 08:31N 38°02' E 023°30'1 1.8
2017-Sep-10 08:00N 38°02' E 023°32'3 6.6
2017-Sep-10 07:31N 38°02' E 023°36'0 0.5
2017-Sep-10 07:00N 38°01' E 023°35'0 0.0
2017-Sep-10 06:30N 38°01' E 023°36'0 0.0
2017-Sep-10 06:00N 38°01' E 023°36'0 0.0
2017-Sep-10 05:31N 38°01' E 023°36'0 0.0
2017-Sep-10 05:00N 38°01' E 023°36'0 0.0
2017-Sep-10 04:30N 38°01' E 023°35'0 0.0
2017-Sep-10 04:01N 38°01' E 023°36'0 0.0
2017-Sep-10 03:31N 38°01' E 023°36'0 0.0
2017-Sep-10 03:00N 38°01' E 023°36'0 0.0
2017-Sep-10 02:30N 38°01' E 023°36'0 0.0
2017-Sep-10 02:00N 38°01' E 023°35'0 0.0
2017-Sep-10 01:31N 38°01' E 023°36'0 0.0
2017-Sep-10 01:01N 38°01' E 023°36'0 0.0
2017-Sep-10 00:30N 38°01' E 023°36'0 0.0
2017-Sep-10 00:00N 38°01' E 023°36'0 0.0
2017-Sep-09 23:30N 38°01' E 023°36'0 0.0
2017-Sep-09 23:00N 38°01' E 023°36'0 0.0
2017-Sep-09 22:30N 38°01' E 023°36'0 0.0
2017-Sep-09 22:00N 38°01' E 023°36'0 0.0
2017-Sep-09 21:30N 38°01' E 023°35'0 0.0
2017-Sep-09 21:00N 38°01' E 023°36'0 0.0
2017-Sep-09 20:30N 38°01' E 023°36'0 0.0
2017-Sep-09 20:00N 38°01' E 023°36'0 0.0
2017-Sep-09 19:30N 38°01' E 023°35'0 0.0
2017-Sep-09 19:00N 38°01' E 023°36'  
Track history (hours):
 
Tides and Currents Weather Stations Pressure Air Temp Water Temp Dewpoint Dewpoint Depression Visibility Wind Speed Wind Dir Waves Ship Positions

Christos Xiv

Last reported at 2017-Sep-19 18:49 UTC. Time now 2017-Sep-19 19:05 UTC.
Position N 37°58' E 023°34'.

Length 27 m; draft 3.7 m.

Type: Tug. MMSI: 240873000.

Date/timePositionNaut miles runAvg speedWind from/ knotsBaromVisibWave heightAir tempDewpointWater temp
2017-Sep-19 18:49N 37°58' E 023°34'0 0.0
2017-Sep-19 18:31N 37°58' E 023°34'0 0.0
2017-Sep-19 18:01N 37°58' E 023°34'0 0.2
2017-Sep-19 17:30N 37°58' E 023°34'4 7.7
2017-Sep-19 17:01N 38°01' E 023°32'2 3.1
2017-Sep-19 16:31N 38°02' E 023°30'0 0.9
2017-Sep-19 16:01N 38°02' E 023°31'3 5.5
2017-Sep-19 15:30N 38°02' E 023°34'0 0.0
2017-Sep-19 15:00N 38°02' E 023°34'0 0.0
2017-Sep-19 14:30N 38°02' E 023°34'0 0.1
2017-Sep-19 14:00N 38°02' E 023°34'0 0.0
2017-Sep-19 13:31N 38°02' E 023°34'0 0.0
2017-Sep-19 13:00N 38°02' E 023°34'0 0.2
2017-Sep-19 12:30N 38°02' E 023°34'0 0.1
2017-Sep-19 12:00N 38°02' E 023°34'1 2.6
2017-Sep-19 11:31N 38°02' E 023°36'0 0.5
2017-Sep-19 11:01N 38°01' E 023°36'0 0.3
2017-Sep-19 10:30N 38°02' E 023°35'0 0.4
2017-Sep-19 10:00N 38°01' E 023°36'1 1.1
2017-Sep-19 09:31N 38°01' E 023°35'1 1.9
2017-Sep-19 09:00N 38°02' E 023°34'3 6.0
2017-Sep-19 08:30N 38°02' E 023°30'0 0.2
2017-Sep-19 08:01N 38°02' E 023°30'0 0.0
2017-Sep-19 07:30N 38°02' E 023°30'0 0.0
2017-Sep-19 07:00N 38°02' E 023°30'0 0.0
2017-Sep-19 06:30N 38°02' E 023°30'0 0.0
2017-Sep-19 06:00N 38°02' E 023°30'0 0.0
2017-Sep-18 09:10N 38°02' E 023°30'0 0.5
2017-Sep-18 09:01N 38°02' E 023°30'0 0.2
2017-Sep-18 08:31N 38°02' E 023°30'0 0.0
2017-Sep-18 08:01N 38°02' E 023°30'0 0.0
2017-Sep-18 07:31N 38°02' E 023°30'0 0.0
2017-Sep-18 07:00N 38°02' E 023°30'0 0.0
2017-Sep-18 06:31N 38°02' E 023°30'0 0.0
2017-Sep-18 06:00N 38°02' E 023°30'0 0.0
2017-Sep-18 05:31N 38°02' E 023°30'0 0.0
2017-Sep-18 05:00N 38°02' E 023°30'0 0.0
2017-Sep-18 04:30N 38°02' E 023°30'0 0.0
2017-Sep-18 04:01N 38°02' E 023°30'0 0.0
2017-Sep-18 03:30N 38°02' E 023°30'0 0.0
2017-Sep-18 03:01N 38°02' E 023°30'0 0.0
2017-Sep-18 02:31N 38°02' E 023°30'0 0.0
2017-Sep-18 02:01N 38°02' E 023°30'0 0.0
2017-Sep-18 01:31N 38°02' E 023°30'0 0.0
2017-Sep-18 01:01N 38°02' E 023°30'0 0.0
2017-Sep-18 00:31N 38°02' E 023°30'0 0.0
2017-Sep-18 00:00N 38°02' E 023°30'0 0.0
2017-Sep-17 23:30N 38°02' E 023°30'0 0.0
2017-Sep-17 23:00N 38°02' E 023°30'0 0.1
2017-Sep-17 22:30N 38°02' E 023°30'0 0.1
2017-Sep-17 22:00N 38°02' E 023°30'0 0.0
2017-Sep-17 21:30N 38°02' E 023°30'0 0.0
2017-Sep-17 21:01N 38°02' E 023°30'0 0.0
2017-Sep-17 20:31N 38°02' E 023°30'1 2.2
2017-Sep-17 20:00N 38°01' E 023°31'5 9.3
2017-Sep-17 19:30N 37°57' E 023°34'1 2.6
2017-Sep-17 19:00N 37°57' E 023°36'1 2.4
2017-Sep-17 18:30N 37°57' E 023°34'1 1.6
2017-Sep-17 18:00N 37°58' E 023°33'0 0.0
2017-Sep-17 17:30N 37°58' E 023°33'0 0.0
2017-Sep-17 17:00N 37°58' E 023°33'1 2.6
2017-Sep-17 16:30N 37°59' E 023°33'3 6.3
2017-Sep-17 16:00N 38°01' E 023°36'0 0.0
2017-Sep-17 15:30N 38°01' E 023°36'0 0.0
2017-Sep-17 15:00N 38°01' E 023°36'0 0.0
2017-Sep-17 14:31N 38°01' E 023°36'0 0.3
2017-Sep-17 14:01N 38°02' E 023°35'2 4.8
2017-Sep-17 13:31N 38°02' E 023°32'1 2.2
2017-Sep-17 13:00N 38°02' E 023°34'1 2.8
2017-Sep-17 12:30N 38°01' E 023°35'0 0.0
2017-Sep-17 12:00N 38°01' E 023°35'0 0.0
2017-Sep-17 11:30N 38°01' E 023°35'2 4.9
2017-Sep-17 11:00N 38°02' E 023°32'2 3.4
2017-Sep-17 10:30N 38°02' E 023°30'0 0.0
2017-Sep-17 10:00N 38°02' E 023°30'0 0.0
2017-Sep-17 09:31N 38°02' E 023°30'0 0.0
2017-Sep-17 09:01N 38°02' E 023°30'0 0.0
2017-Sep-17 08:31N 38°02' E 023°30'0 0.0
2017-Sep-17 08:00N 38°02' E 023°30'0 0.0
2017-Sep-17 07:31N 38°02' E 023°30'0 0.0
2017-Sep-17 07:00N 38°02' E 023°30'0 0.0
2017-Sep-17 06:30N 38°02' E 023°30'0 0.0
2017-Sep-17 06:01N 38°02' E 023°30'0 0.0
2017-Sep-17 05:30N 38°02' E 023°30'0 0.0
2017-Sep-17 05:01N 38°02' E 023°30'0 0.0
2017-Sep-17 04:31N 38°02' E 023°30'0 0.0
2017-Sep-16 12:10N 38°02' E 023°30'0 0.1
2017-Sep-16 12:01N 38°02' E 023°30'2 4.0
2017-Sep-16 11:31N 38°01' E 023°32'2 5.0
2017-Sep-16 11:00N 38°01' E 023°36'0 0.1
2017-Sep-16 10:30N 38°02' E 023°36'1 2.7
2017-Sep-16 10:01N 38°01' E 023°34'2 4.1
2017-Sep-16 09:30N 37°59' E 023°33'2 3.4
2017-Sep-16 09:00N 37°57' E 023°33'1 1.1
2017-Sep-16 08:31N 37°58' E 023°33'0 0.0
2017-Sep-16 08:00N 37°58' E 023°33'0 0.0
2017-Sep-16 07:30N 37°58' E 023°33'0 0.0
2017-Sep-16 07:00N 37°58' E 023°33'1 1.7
2017-Sep-16 06:31N 37°57' E 023°34'4 8.9
2017-Sep-16 06:00N 37°53' E 023°35'510.0
2017-Sep-16 05:30N 37°48' E 023°36'510.0
2017-Sep-16 05:00N 37°43' E 023°37'510.1
2017-Sep-16 04:30N 37°38' E 023°38'510.2
2017-Sep-16 03:59N 37°33' E 023°39'2610.3
2017-Sep-16 01:24N 37°06' E 023°44'510.5
2017-Sep-16 00:57N 37°02' E 023°45'1710.2
2017-Sep-15 23:16N 36°45' E 023°49'29 1.0
2017-Sep-14 17:06N 37°14' E 023°47'1 9.2
2017-Sep-14 17:00N 37°15' E 023°46'5 9.5
2017-Sep-14 16:30N 37°20' E 023°45'9 9.8
2017-Sep-14 15:33N 37°29' E 023°41'1 9.9
2017-Sep-14 15:29N 37°29' E 023°41'510.0
2017-Sep-14 15:00N 37°34' E 023°40'5 9.9
2017-Sep-14 14:30N 37°39' E 023°39'510.2
2017-Sep-14 14:00N 37°44' E 023°37'510.4
2017-Sep-14 13:30N 37°49' E 023°36'510.3
2017-Sep-14 13:00N 37°54' E 023°35'4 7.9
2017-Sep-14 12:30N 37°58' E 023°33'0 0.0
2017-Sep-14 12:00N 37°58' E 023°33'0 0.0
2017-Sep-14 11:30N 37°58' E 023°33'2 1.1
2017-Sep-14 09:28N 38°00' E 023°33'3 6.4
2017-Sep-14 09:00N 38°02' E 023°30'0 0.0
2017-Sep-14 08:30N 38°02' E 023°30'0 0.0
2017-Sep-14 08:00N 38°02' E 023°30'0 0.6
2017-Sep-14 07:30N 38°02' E 023°31'0 0.6
2017-Sep-14 07:00N 38°02' E 023°30'0 0.0
2017-Sep-14 06:30N 38°02' E 023°30'0 0.0
2017-Sep-14 06:00N 38°02' E 023°30'0 0.0
2017-Sep-14 05:31N 38°02' E 023°30'0 0.6
2017-Sep-14 05:01N 38°02' E 023°30'1 1.4
2017-Sep-14 04:30N 38°02' E 023°31'1 1.8
2017-Sep-14 04:00N 38°02' E 023°30'0 0.0
2017-Sep-14 03:30N 38°02' E 023°30'0 0.0
2017-Sep-14 03:00N 38°02' E 023°30'0 0.0
2017-Sep-14 02:30N 38°02' E 023°30'0 0.0
2017-Sep-14 02:00N 38°02' E 023°30'0 0.0
2017-Sep-14 01:30N 38°02' E 023°30'0 0.0
2017-Sep-14 01:00N 38°02' E 023°30'0 0.0
2017-Sep-14 00:30N 38°02' E 023°30'0 0.0
2017-Sep-14 00:00N 38°02' E 023°30'0 0.0
2017-Sep-13 23:30N 38°02' E 023°30'0 0.0
2017-Sep-13 23:00N 38°02' E 023°30'0 0.0
2017-Sep-13 22:30N 38°02' E 023°30'0 0.0
2017-Sep-13 22:00N 38°02' E 023°30'0 0.0
2017-Sep-13 21:30N 38°02' E 023°30'0 0.0
2017-Sep-13 21:00N 38°02' E 023°30'0 0.0
2017-Sep-13 20:30N 38°02' E 023°30'0 0.0
2017-Sep-13 20:00N 38°02' E 023°30'0 0.0
2017-Sep-13 19:30N 38°02' E 023°30'0 0.0
2017-Sep-13 19:00N 38°02' E 023°30'0 0.0
2017-Sep-13 18:31N 38°02' E 023°30'0 0.7
2017-Sep-13 18:01N 38°02' E 023°30'0 0.5
2017-Sep-13 17:30N 38°02' E 023°31'0 0.0
2017-Sep-13 17:00N 38°02' E 023°31'0 0.0
2017-Sep-13 16:30N 38°02' E 023°31'0 0.2
2017-Sep-13 16:00N 38°02' E 023°30'0 0.3
2017-Sep-13 15:31N 38°02' E 023°30'0 0.3
2017-Sep-13 14:59N 38°02' E 023°30'0 0.0
2017-Sep-13 14:30N 38°02' E 023°30'0 0.0
2017-Sep-13 14:00N 38°02' E 023°30'0 0.0
2017-Sep-13 13:30N 38°02' E 023°30'0 0.0
2017-Sep-13 13:00N 38°02' E 023°30'0 0.4
2017-Sep-13 12:30N 38°02' E 023°31'0 0.7
2017-Sep-13 12:00N 38°02' E 023°30'0 0.4
2017-Sep-13 11:31N 38°02' E 023°30'0 0.7
2017-Sep-13 11:00N 38°02' E 023°30'0 0.0
2017-Sep-13 10:30N 38°02' E 023°30'0 0.0
2017-Sep-13 10:00N 38°02' E 023°30'0 0.0
2017-Sep-13 09:30N 38°02' E 023°30'0 0.5
2017-Sep-13 09:00N 38°02' E 023°31'0 0.2
2017-Sep-13 08:31N 38°02' E 023°31'4 7.6
2017-Sep-13 08:00N 38°02' E 023°35'4 7.2
2017-Sep-13 07:30N 38°02' E 023°31'1 1.2
2017-Sep-13 07:00N 38°02' E 023°30'0 0.0
2017-Sep-13 05:16N 38°02' E 023°30'0 0.0
2017-Sep-13 05:01N 38°02' E 023°30'0 0.0
2017-Sep-13 04:31N 38°02' E 023°30'0 0.0
2017-Sep-13 04:00N 38°02' E 023°30'0 0.0
2017-Sep-13 03:30N 38°02' E 023°30'0 0.0
2017-Sep-13 03:00N 38°02' E 023°30'0 0.0
2017-Sep-13 02:30N 38°02' E 023°30'0 0.4
2017-Sep-13 02:00N 38°02' E 023°30'0 0.3
2017-Sep-13 01:30N 38°02' E 023°31'0 0.6
2017-Sep-13 01:00N 38°02' E 023°30'0 0.0
2017-Sep-13 00:31N 38°02' E 023°30'0 0.0
2017-Sep-13 00:01N 38°02' E 023°30'0 0.0
2017-Sep-12 23:31N 38°02' E 023°30'0 0.0
2017-Sep-12 23:00N 38°02' E 023°30'0 0.0
2017-Sep-12 22:30N 38°02' E 023°30'0 0.0
2017-Sep-12 22:01N 38°02' E 023°30'0 0.0
2017-Sep-12 21:31N 38°02' E 023°30'0 0.0
2017-Sep-12 21:00N 38°02' E 023°30'0 0.0
2017-Sep-12 20:31N 38°02' E 023°30'0 0.0
2017-Sep-12 20:00N 38°02' E 023°30'0 0.0
2017-Sep-12 19:30N 38°02' E 023°30'0 0.9
2017-Sep-12 19:00N 38°02' E 023°31'0 0.9
2017-Sep-12 18:31N 38°02' E 023°30'0 0.0
2017-Sep-12 18:00N 38°02' E 023°30'0 0.0
2017-Sep-12 17:31N 38°02' E 023°30'0 0.0
2017-Sep-12 17:00N 38°02' E 023°30'0 0.0
2017-Sep-12 16:30N 38°02' E 023°30'0 0.0
2017-Sep-12 16:00N 38°02' E 023°30'0 0.0
2017-Sep-12 12:44N 38°02' E 023°30'0 0.0
2017-Sep-12 12:30N 38°02' E 023°30'0 0.0
2017-Sep-12 12:00N 38°02' E 023°30'0 0.0
2017-Sep-12 11:30N 38°02' E 023°30'0 0.0
2017-Sep-12 11:00N 38°02' E 023°30'0 0.9
2017-Sep-12 10:31N 38°02' E 023°31'0 0.3
2017-Sep-12 10:00N 38°02' E 023°31'0 0.7
2017-Sep-12 09:31N 38°02' E 023°30'0 0.0
2017-Sep-12 09:00N 38°02' E 023°30'0 0.5
2017-Sep-12 08:31N 38°02' E 023°31'0 0.1
2017-Sep-12 08:00N 38°02' E 023°31'0 0.0
2017-Sep-12 07:30N 38°02' E 023°31'0 0.0
2017-Sep-12 07:00N 38°02' E 023°31'0 0.0
2017-Sep-12 06:30N 38°02' E 023°31'0 0.4
2017-Sep-12 06:00N 38°02' E 023°30'0 0.0
2017-Sep-12 05:31N 38°02' E 023°30'0 0.0
2017-Sep-12 05:00N 38°02' E 023°30'0 0.0
2017-Sep-11 18:33N 38°02' E 023°30'0 0.0
2017-Sep-11 18:30N 38°02' E 023°30'0 0.6
2017-Sep-11 18:00N 38°02' E 023°30'1 2.4
2017-Sep-11 17:31N 38°01' E 023°31'2 3.0
2017-Sep-11 17:00N 38°02' E 023°30'0 0.0
2017-Sep-11 16:30N 38°02' E 023°30'0 0.0
2017-Sep-11 16:00N 38°02' E 023°30'0 0.5
2017-Sep-11 15:30N 38°02' E 023°30'2 3.2
2017-Sep-11 15:01N 38°02' E 023°32'2 3.4
2017-Sep-11 14:30N 38°02' E 023°30'0 0.5
2017-Sep-11 14:00N 38°02' E 023°31'0 0.5
2017-Sep-11 13:30N 38°02' E 023°30'0 0.0
2017-Sep-11 13:01N 38°02' E 023°30'0 0.0
2017-Sep-11 12:31N 38°02' E 023°30'0 0.0
2017-Sep-11 12:01N 38°02' E 023°30'0 0.0
2017-Sep-11 11:30N 38°02' E 023°30'0 0.0
2017-Sep-11 11:00N 38°02' E 023°30'0 0.0
2017-Sep-11 10:31N 38°02' E 023°30'0 0.0
2017-Sep-11 10:00N 38°02' E 023°30'0 0.0
2017-Sep-11 09:29N 38°02' E 023°30'0 0.0
2017-Sep-11 09:01N 38°02' E 023°30'0 0.3
2017-Sep-11 08:30N 38°02' E 023°30'0 0.6
2017-Sep-11 08:01N 38°02' E 023°30'0 0.8
2017-Sep-11 07:30N 38°02' E 023°30'0 0.1
2017-Sep-11 07:01N 38°02' E 023°30'0 0.0
2017-Sep-11 06:30N 38°02' E 023°30'0 0.0
2017-Sep-11 06:00N 38°02' E 023°30'0 0.0
2017-Sep-11 05:31N 38°02' E 023°30'0 0.0
2017-Sep-11 05:01N 38°02' E 023°30'0 0.0
2017-Sep-11 04:30N 38°02' E 023°30'0 0.0
2017-Sep-11 04:00N 38°02' E 023°30'0 0.0
2017-Sep-11 03:31N 38°02' E 023°30'0 0.0
2017-Sep-11 03:01N 38°02' E 023°30'0 0.0
2017-Sep-11 02:30N 38°02' E 023°30'0 0.0
2017-Sep-11 02:00N 38°02' E 023°30'0 0.0
2017-Sep-11 01:31N 38°02' E 023°30'0 0.0
2017-Sep-11 01:00N 38°02' E 023°30'0 0.0
2017-Sep-11 00:30N 38°02' E 023°30'0 0.0
2017-Sep-11 00:01N 38°02' E 023°30'0 0.0
2017-Sep-10 23:30N 38°02' E 023°30'0 0.0
2017-Sep-10 23:01N 38°02' E 023°30'0 0.0
2017-Sep-10 22:30N 38°02' E 023°30'0 0.0
2017-Sep-10 22:01N 38°02' E 023°30'0 0.0
2017-Sep-10 21:30N 38°02' E 023°30'0 0.0
2017-Sep-10 21:00N 38°02' E 023°30'0 0.0
2017-Sep-10 20:30N 38°02' E 023°30'0 0.3
2017-Sep-10 20:00N 38°02' E 023°30'0 0.3
2017-Sep-10 19:30N 38°02' E 023°30'0 0.0
2017-Sep-10 19:00N 38°02' E 023°30'3 5.2
2017-Sep-10 18:30N 38°00' E 023°32'4 8.7
2017-Sep-10 18:01N 37°57' E 023°36'2 3.7
2017-Sep-10 17:30N 37°56' E 023°38'1 2.8
2017-Sep-10 17:00N 37°57' E 023°36'4 7.7
2017-Sep-10 16:30N 37°60' E 023°33'3 5.4
2017-Sep-10 16:01N 38°01' E 023°36'1 2.3
2017-Sep-10 15:30N 38°01' E 023°35'3 6.7
2017-Sep-10 15:00N 37°57' E 023°33'0 0.2
2017-Sep-10 14:00N 37°57' E 023°33'3 6.4
2017-Sep-10 13:31N 38°00' E 023°32'2 4.5
2017-Sep-10 13:01N 38°02' E 023°30'2 3.1
2017-Sep-10 12:31N 38°02' E 023°32'0 0.4
2017-Sep-10 12:01N 38°02' E 023°32'0 0.0
2017-Sep-10 11:30N 38°02' E 023°32'0 0.0
2017-Sep-10 11:01N 38°02' E 023°32'0 0.0
2017-Sep-10 10:30N 38°02' E 023°32'0 0.2
2017-Sep-10 10:00N 38°02' E 023°32'0 0.0
2017-Sep-10 09:30N 38°02' E 023°32'0 0.0
2017-Sep-10 09:00N 38°02' E 023°32'1 3.0
2017-Sep-10 08:31N 38°02' E 023°30'1 1.8
2017-Sep-10 08:00N 38°02' E 023°32'3 6.6
2017-Sep-10 07:31N 38°02' E 023°36'0 0.5
2017-Sep-10 07:00N 38°01' E 023°35'0 0.0
2017-Sep-10 06:30N 38°01' E 023°36'0 0.0
2017-Sep-10 06:00N 38°01' E 023°36'0 0.0
2017-Sep-10 05:31N 38°01' E 023°36'0 0.0
2017-Sep-10 05:00N 38°01' E 023°36'0 0.0
2017-Sep-10 04:30N 38°01' E 023°35'0 0.0
2017-Sep-10 04:01N 38°01' E 023°36'0 0.0
2017-Sep-10 03:31N 38°01' E 023°36'0 0.0
2017-Sep-10 03:00N 38°01' E 023°36'0 0.0
2017-Sep-10 02:30N 38°01' E 023°36'0 0.0
2017-Sep-10 02:00N 38°01' E 023°35'0 0.0
2017-Sep-10 01:31N 38°01' E 023°36'0 0.0
2017-Sep-10 01:01N 38°01' E 023°36'0 0.0
2017-Sep-10 00:30N 38°01' E 023°36'0 0.0
2017-Sep-10 00:00N 38°01' E 023°36'0 0.0
2017-Sep-09 23:30N 38°01' E 023°36'0 0.0
2017-Sep-09 23:00N 38°01' E 023°36'0 0.0
2017-Sep-09 22:30N 38°01' E 023°36'0 0.0
2017-Sep-09 22:00N 38°01' E 023°36'0 0.0
2017-Sep-09 21:30N 38°01' E 023°35'0 0.0
2017-Sep-09 21:00N 38°01' E 023°36'0 0.0
2017-Sep-09 20:30N 38°01' E 023°36'0 0.0
2017-Sep-09 20:00N 38°01' E 023°36'0 0.0
2017-Sep-09 19:30N 38°01' E 023°35'0 0.0
2017-Sep-09 19:00N 38°01' E 023°36'  

Dump ship's entire track history